Terminal Aerodrome Forecast
Issued by NWS

Home | Current Version | Previous Version | Text Only | Print | Product List | Glossary On
Versions: 1 2 3 4 5 6 7 8 9 10 11 12 13 14
000
FTUS45 KVEF 060520
TAFDAG
TAF
KDAG 060520Z 0606/0706 25015KT P6SM FEW120
     FM061100 27010G18KT P6SM SKC
     FM062000 25018G28KT P6SM FEW120=

USA.gov is the U.S. government's official web portal to all federal, state and local government web resources and services.